createdAt,value
2019-04-10T00:02:09.927Z,3.90
2019-04-10T00:07:16.512Z,3.90
2019-04-10T00:12:19.158Z,3.80
2019-04-10T00:17:22.903Z,3.80
2019-04-10T00:22:26.378Z,3.70
2019-04-10T00:27:30.459Z,3.60
2019-04-10T00:32:34.182Z,3.50
2019-04-10T00:37:37.556Z,3.50
2019-04-10T00:42:41.361Z,3.40
2019-04-10T00:47:45.542Z,3.40
2019-04-10T00:52:48.956Z,3.40
2019-04-10T00:57:52.263Z,3.40
2019-04-10T01:02:56.751Z,3.30
2019-04-10T01:08:00.218Z,3.30
2019-04-10T01:13:03.521Z,3.30
2019-04-10T01:18:06.891Z,3.30
2019-04-10T01:23:10.259Z,3.20
2019-04-10T01:28:14.215Z,3.20
2019-04-10T01:33:18.619Z,3.20
2019-04-10T01:38:22.358Z,3.10
2019-04-10T01:43:26.596Z,3.10
2019-04-10T01:48:30.196Z,3.10
2019-04-10T01:53:35.623Z,3.00
2019-04-10T01:58:41.292Z,3.00
2019-04-10T02:03:44.862Z,3.00
2019-04-10T02:08:48.167Z,3.00
2019-04-10T02:13:51.816Z,2.90
2019-04-10T02:18:55.143Z,2.80
2019-04-10T02:23:58.701Z,2.80
2019-04-10T02:29:02.018Z,2.70
2019-04-10T02:34:07.568Z,2.70
2019-04-10T02:39:21.839Z,2.60
2019-04-10T02:44:16.439Z,2.50
2019-04-10T02:49:20.434Z,2.40
2019-04-10T02:54:25.088Z,2.30
2019-04-10T02:59:29.154Z,2.20
2019-04-10T03:04:33.075Z,2.20
2019-04-10T03:09:52.890Z,2.10
2019-04-10T03:14:45.177Z,2.10
2019-04-10T03:19:49.749Z,2.00
2019-04-10T03:24:52.769Z,1.90
2019-04-10T03:29:56.098Z,1.80
2019-04-10T03:35:04.753Z,1.70
2019-04-10T03:40:08.124Z,1.70
2019-04-10T03:45:13.592Z,1.60
2019-04-10T03:50:18.710Z,1.50
2019-04-10T03:55:22.938Z,1.50
2019-04-10T04:00:26.386Z,1.40
2019-04-10T04:05:30.776Z,1.40
2019-04-10T04:10:35.052Z,1.40
2019-04-10T04:15:39.098Z,1.40
2019-04-10T04:20:43.334Z,1.30
2019-04-10T04:25:46.816Z,1.40
2019-04-10T04:30:52.330Z,1.40
2019-04-10T04:35:55.196Z,1.50
2019-04-10T04:40:58.637Z,1.50
2019-04-10T04:46:03.215Z,1.60
2019-04-10T04:51:06.921Z,1.70
2019-04-10T04:56:10.216Z,1.80
2019-04-10T05:01:14.693Z,1.90
2019-04-10T05:06:18.299Z,2.10
2019-04-10T05:11:22.346Z,2.20
2019-04-10T05:16:25.748Z,2.30
2019-04-10T05:21:29.468Z,2.40
2019-04-10T05:26:32.814Z,2.50
2019-04-10T05:31:36.420Z,2.50
2019-04-10T05:36:40.017Z,2.50
2019-04-10T05:41:44.035Z,2.70
2019-04-10T05:46:47.619Z,2.90
2019-04-10T05:51:54.152Z,3.10
2019-04-10T05:56:58.998Z,3.20
2019-04-10T06:02:03.139Z,3.30
2019-04-10T06:07:06.703Z,3.40
2019-04-10T06:12:10.084Z,3.60
2019-04-10T06:17:14.168Z,3.80
2019-04-10T06:22:18.617Z,4.00
2019-04-10T06:27:22.217Z,4.20
2019-04-10T06:32:25.620Z,4.50
2019-04-10T06:37:28.982Z,4.80
2019-04-10T06:42:44.383Z,4.80
2019-04-10T06:47:38.254Z,4.80
2019-04-10T06:52:41.665Z,4.90
2019-04-10T06:57:50.861Z,6.00
2019-04-10T07:02:50.569Z,6.30
2019-04-10T07:08:01.813Z,6.20
2019-04-10T07:12:59.655Z,6.10
2019-04-10T07:18:03.191Z,6.30
2019-04-10T07:23:07.014Z,7.60
2019-04-10T07:28:11.953Z,10.20
2019-04-10T07:33:18.086Z,10.60
2019-04-10T07:38:22.731Z,9.20
2019-04-10T07:43:28.921Z,8.30
2019-04-10T07:48:31.537Z,7.90
2019-04-10T07:53:35.244Z,7.90
2019-04-10T07:58:39.843Z,8.00
2019-04-10T08:03:43.834Z,8.00
2019-04-10T08:08:47.306Z,8.10
2019-04-10T08:13:51.197Z,8.40
2019-04-10T08:18:56.833Z,8.90
2019-04-10T08:30:03.864Z,11.50
2019-04-10T08:35:07.379Z,14.30
2019-04-10T08:40:11.548Z,16.30
2019-04-10T08:45:15.035Z,17.50
2019-04-10T08:50:19.632Z,18.10
2019-04-10T08:55:24.036Z,19.00
2019-04-10T09:00:28.827Z,18.60
2019-04-10T09:05:33.291Z,18.40
2019-04-10T09:10:36.789Z,18.40
2019-04-10T09:15:42.265Z,18.80
2019-04-10T09:20:47.505Z,18.60
2019-04-10T09:25:51.253Z,18.60
2019-04-10T09:30:57.410Z,18.80
2019-04-10T09:36:00.810Z,19.40
2019-04-10T09:41:04.227Z,18.60
2019-04-10T09:46:08.446Z,19.30
2019-04-10T09:51:15.323Z,19.40
2019-04-10T09:56:19.909Z,19.20
2019-04-10T10:01:23.976Z,19.70
2019-04-10T10:06:33.056Z,18.60
2019-04-10T10:11:32.569Z,18.50
2019-04-10T10:16:36.075Z,19.50
2019-04-10T10:21:39.428Z,21.50
2019-04-10T10:26:44.556Z,26.00
2019-04-10T10:31:49.776Z,30.80
2019-04-10T10:36:53.285Z,33.20
2019-04-10T10:41:56.785Z,28.50
2019-04-10T10:47:00.272Z,27.30
2019-04-10T10:52:03.633Z,31.20
2019-04-10T10:57:07.110Z,32.70
2019-04-10T11:02:10.643Z,30.00
2019-04-10T11:07:14.494Z,33.70
2019-04-10T11:12:17.788Z,38.20
2019-04-10T11:17:22.185Z,40.10
2019-04-10T11:22:26.536Z,42.40
2019-04-10T11:27:30.055Z,40.40
2019-04-10T11:32:33.916Z,40.90
2019-04-10T11:42:42.959Z,41.40
2019-04-10T11:47:48.247Z,41.60
2019-04-10T11:52:54.121Z,42.00
2019-04-10T11:57:59.940Z,42.90
2019-04-10T12:03:04.874Z,40.60
2019-04-10T12:08:32.262Z,35.70
2019-04-10T12:13:16.445Z,30.60
2019-04-10T12:18:20.378Z,33.30
2019-04-10T12:23:25.135Z,38.10
2019-04-10T12:28:29.784Z,40.60
2019-04-10T12:33:33.734Z,40.80
2019-04-10T12:38:37.225Z,41.00
2019-04-10T12:43:41.386Z,41.60
2019-04-10T12:48:45.183Z,41.10
2019-04-10T12:53:48.756Z,39.80
2019-04-10T12:58:53.184Z,39.90
2019-04-10T13:03:57.844Z,41.50
2019-04-10T13:09:07.852Z,40.80
2019-04-10T13:14:06.928Z,41.50
2019-04-10T13:19:11.206Z,41.20
2019-04-10T13:24:15.356Z,41.00
2019-04-10T13:29:18.672Z,41.80
2019-04-10T13:34:22.884Z,38.10
2019-04-10T13:39:26.853Z,32.90
2019-04-10T13:44:30.813Z,26.60
2019-04-10T13:49:34.240Z,22.80
2019-04-10T13:54:38.807Z,20.90
2019-04-10T13:59:42.944Z,19.20
2019-04-10T14:04:47.265Z,17.30
2019-04-10T14:09:52.334Z,16.40
2019-04-10T14:14:57.368Z,15.80
2019-04-10T14:20:02.874Z,14.90
2019-04-10T14:25:07.937Z,14.60
2019-04-10T14:30:13.298Z,14.20
2019-04-10T14:35:16.853Z,13.60
2019-04-10T14:40:24.143Z,13.30
2019-04-10T14:45:27.738Z,13.00
2019-04-10T14:50:31.638Z,12.80
2019-04-10T14:55:35.528Z,12.70
2019-04-10T15:00:41.158Z,12.40
2019-04-10T15:05:50.548Z,12.10
2019-04-10T15:10:50.406Z,11.90
2019-04-10T15:15:54.767Z,11.50
2019-04-10T15:20:58.760Z,11.20
2019-04-10T15:26:03.848Z,10.90
2019-04-10T15:31:08.855Z,10.70
2019-04-10T15:36:12.660Z,10.70
2019-04-10T15:41:19.273Z,10.50
2019-04-10T15:46:23.188Z,10.10
2019-04-10T15:51:36.293Z,9.70
2019-04-10T15:56:40.181Z,9.60
2019-04-10T16:01:44.621Z,9.50
2019-04-10T16:06:47.998Z,9.30
2019-04-10T16:11:58.963Z,9.20
2019-04-10T16:17:22.317Z,9.10
2019-04-10T16:22:31.108Z,9.00
2019-04-10T16:27:34.614Z,8.70
2019-04-10T16:32:38.020Z,8.60
2019-04-10T16:37:41.878Z,8.50
2019-04-10T16:42:45.309Z,8.40
2019-04-10T16:47:48.605Z,8.30
2019-04-10T16:52:53.631Z,8.20
2019-04-10T16:57:56.972Z,8.00
2019-04-10T17:03:06.568Z,7.80
2019-04-10T17:08:12.347Z,7.70
2019-04-10T17:13:16.223Z,7.50
2019-04-10T17:18:19.781Z,7.30
2019-04-10T17:23:24.872Z,7.30
2019-04-10T17:28:28.456Z,7.10
2019-04-10T17:33:32.271Z,7.00
2019-04-10T17:38:36.509Z,6.90
2019-04-10T17:43:41.291Z,6.90
2019-04-10T17:48:44.767Z,6.80
2019-04-10T17:53:49.423Z,6.80
2019-04-10T17:58:54.244Z,6.70
2019-04-10T18:04:00.541Z,6.50
2019-04-10T18:09:03.317Z,6.50
2019-04-10T18:14:07.109Z,6.40
2019-04-10T18:19:12.508Z,6.30
2019-04-10T18:24:17.315Z,6.20
2019-04-10T18:29:21.146Z,6.10
2019-04-10T18:34:25.644Z,6.00
2019-04-10T18:39:29.042Z,6.00
2019-04-10T18:44:33.104Z,5.90
2019-04-10T18:49:36.511Z,5.80
2019-04-10T18:54:39.818Z,5.80
2019-04-10T18:59:51.128Z,5.70
2019-04-10T19:05:01.906Z,5.60
2019-04-10T19:10:06.812Z,5.50
2019-04-10T19:15:11.184Z,5.40
2019-04-10T19:20:15.656Z,5.40
2019-04-10T19:25:22.819Z,5.40
2019-04-10T19:30:37.381Z,5.30
2019-04-10T19:35:41.404Z,5.30
2019-04-10T19:40:45.840Z,5.30
2019-04-10T19:45:50.258Z,5.20
2019-04-10T19:50:53.922Z,5.30
2019-04-10T19:55:57.357Z,5.30
2019-04-10T20:01:12.741Z,5.40
2019-04-10T20:06:16.190Z,5.40
2019-04-10T20:11:31.304Z,5.40
2019-04-10T20:19:38.348Z,5.40
2019-04-10T20:24:45.586Z,5.50
2019-04-10T20:29:51.122Z,5.50
2019-04-10T20:35:00.600Z,5.40
2019-04-10T20:40:05.493Z,5.30
2019-04-10T20:45:09.345Z,5.30
2019-04-10T20:50:17.535Z,5.20
2019-04-10T20:55:25.832Z,5.10
2019-04-10T21:00:34.298Z,5.10
2019-04-10T21:05:37.937Z,5.00
2019-04-10T21:16:09.255Z,5.00
2019-04-10T21:21:16.902Z,4.90
2019-04-10T21:26:20.432Z,4.90
2019-04-10T21:31:34.601Z,4.90
2019-04-10T21:36:39.195Z,4.80
2019-04-10T21:41:42.644Z,4.80
2019-04-10T21:46:46.677Z,4.70
2019-04-10T21:51:50.110Z,4.70
2019-04-10T21:56:53.548Z,4.60
2019-04-10T22:01:57.688Z,4.60
2019-04-10T22:07:20.380Z,4.60
2019-04-10T22:12:31.133Z,4.60
2019-04-10T22:17:30.017Z,4.70
2019-04-10T22:22:33.630Z,4.70
2019-04-10T22:27:37.008Z,4.70
2019-04-10T22:32:40.918Z,4.70
2019-04-10T22:37:46.709Z,4.70
2019-04-10T22:42:51.332Z,4.70
2019-04-10T22:47:54.963Z,4.60
2019-04-10T22:52:59.225Z,4.60
2019-04-10T22:58:04.910Z,4.50
2019-04-10T23:03:08.320Z,4.50
2019-04-10T23:08:11.658Z,4.50
2019-04-10T23:13:16.005Z,4.40
2019-04-10T23:18:19.459Z,4.40
2019-04-10T23:23:25.150Z,4.30
2019-04-10T23:28:28.986Z,4.30
2019-04-10T23:33:34.470Z,4.30
2019-04-10T23:38:39.585Z,4.30
2019-04-10T23:43:42.515Z,4.30
2019-04-10T23:48:46.793Z,4.30
2019-04-10T23:53:50.941Z,4.30
2019-04-10T23:58:56.216Z,4.30
